createdAt,value
2018-12-14T00:00:06.229Z,23.25
2018-12-14T00:02:32.548Z,22.00
2018-12-14T00:04:58.781Z,22.00
2018-12-14T00:07:24.999Z,24.80
2018-12-14T00:09:51.203Z,24.53
2018-12-14T00:12:17.450Z,22.57
2018-12-14T00:14:43.648Z,24.50
2018-12-14T00:17:09.761Z,24.40
2018-12-14T00:19:36.193Z,22.87
2018-12-14T00:22:02.577Z,21.37
2018-12-14T00:24:28.806Z,23.97
2018-12-14T00:26:55.215Z,23.10
2018-12-14T00:29:21.301Z,23.83
2018-12-14T00:31:47.416Z,22.87
2018-12-14T00:34:13.561Z,23.20
2018-12-14T00:36:39.788Z,23.80
2018-12-14T00:39:06.093Z,22.50
2018-12-14T00:41:32.286Z,23.27
2018-12-14T00:43:58.509Z,23.30
2018-12-14T00:46:24.793Z,24.40
2018-12-14T00:48:50.964Z,22.03
2018-12-14T00:51:17.177Z,23.47
2018-12-14T00:53:43.429Z,22.07
2018-12-14T00:56:09.551Z,22.43
2018-12-14T00:58:35.757Z,22.98
2018-12-14T01:01:01.836Z,23.90
2018-12-14T01:03:28.136Z,23.50
2018-12-14T01:05:54.427Z,22.93
2018-12-14T01:08:20.722Z,23.27
2018-12-14T01:10:46.944Z,23.60
2018-12-14T01:13:14.023Z,24.00
2018-12-14T01:15:41.026Z,22.70
2018-12-14T01:18:07.141Z,23.03
2018-12-14T01:20:33.416Z,24.30
2018-12-14T01:22:59.561Z,22.70
2018-12-14T01:25:25.892Z,24.60
2018-12-14T01:27:52.113Z,23.60
2018-12-14T01:30:18.380Z,23.93
2018-12-14T01:32:44.512Z,22.03
2018-12-14T01:35:10.721Z,23.15
2018-12-14T01:37:36.998Z,22.57
2018-12-14T01:40:05.809Z,23.67
2018-12-14T01:42:32.056Z,25.07
2018-12-14T01:44:58.194Z,22.07
2018-12-14T01:47:24.405Z,24.47
2018-12-14T01:49:50.634Z,21.50
2018-12-14T01:52:18.228Z,24.25
2018-12-14T01:54:44.682Z,22.70
2018-12-14T01:57:11.019Z,23.47
2018-12-14T01:59:37.318Z,22.10
2018-12-14T02:02:03.517Z,25.53
2018-12-14T02:04:29.600Z,23.93
2018-12-14T02:06:55.707Z,23.90
2018-12-14T02:09:21.803Z,23.30
2018-12-14T02:11:48.026Z,23.60
2018-12-14T02:14:14.304Z,21.87
2018-12-14T02:16:40.490Z,23.93
2018-12-14T02:19:07.494Z,25.00
2018-12-14T02:21:34.273Z,22.63
2018-12-14T02:24:00.492Z,23.67
2018-12-14T02:26:26.732Z,23.07
2018-12-14T02:28:52.817Z,24.23
2018-12-14T02:31:20.037Z,20.77
2018-12-14T02:33:46.497Z,24.77
2018-12-14T02:36:12.768Z,23.77
2018-12-14T02:38:38.902Z,21.17
2018-12-14T02:41:05.318Z,21.10
2018-12-14T02:43:39.789Z,22.73
2018-12-14T02:46:06.126Z,24.00
2018-12-14T02:48:32.316Z,22.85
2018-12-14T02:50:58.497Z,23.77
2018-12-14T02:53:24.625Z,23.63
2018-12-14T02:55:50.814Z,22.50
2018-12-14T02:58:16.918Z,20.40
2018-12-14T03:00:43.142Z,23.30
2018-12-14T03:03:09.283Z,22.30
2018-12-14T03:05:35.491Z,23.02
2018-12-14T03:08:01.697Z,23.00
2018-12-14T03:10:28.127Z,23.37
2018-12-14T03:12:54.268Z,21.80
2018-12-14T03:15:21.475Z,23.53
2018-12-14T03:17:47.674Z,22.13
2018-12-14T03:20:13.897Z,21.80
2018-12-14T03:22:41.142Z,20.90
2018-12-14T03:25:08.312Z,22.30
2018-12-14T03:27:36.256Z,23.27
2018-12-14T03:30:05.942Z,21.90
2018-12-14T03:32:32.056Z,23.80
2018-12-14T03:34:58.183Z,21.17
2018-12-14T03:37:24.278Z,24.25
2018-12-14T03:39:50.378Z,22.33
2018-12-14T03:42:17.551Z,23.17
2018-12-14T03:44:43.847Z,22.63
2018-12-14T03:47:13.141Z,21.77
2018-12-14T03:49:39.613Z,23.53
2018-12-14T03:52:07.009Z,24.07
2018-12-14T03:54:34.057Z,24.67
2018-12-14T03:57:00.276Z,23.17
2018-12-14T03:59:26.398Z,20.90
2018-12-14T04:01:52.637Z,21.97
2018-12-14T04:04:18.841Z,23.40
2018-12-14T04:06:45.186Z,24.20
2018-12-14T04:09:11.372Z,23.00
2018-12-14T04:11:37.707Z,24.80
2018-12-14T04:14:04.132Z,23.20
2018-12-14T04:16:30.370Z,22.73
2018-12-14T04:18:56.517Z,23.80
2018-12-14T04:21:22.838Z,23.00
2018-12-14T04:23:49.032Z,21.40
2018-12-14T04:26:15.334Z,22.60
2018-12-14T04:28:41.484Z,24.50
2018-12-14T04:31:07.624Z,24.07
2018-12-14T04:33:34.287Z,24.07
2018-12-14T04:36:00.731Z,24.40
2018-12-14T04:38:26.876Z,22.52
2018-12-14T04:40:53.168Z,22.20
2018-12-14T04:43:19.443Z,21.17
2018-12-14T04:45:45.799Z,20.87
2018-12-14T04:48:12.310Z,22.70
2018-12-14T04:50:38.474Z,23.30
2018-12-14T04:53:04.797Z,23.93
2018-12-14T04:55:37.996Z,21.57
2018-12-14T04:58:05.016Z,22.20
2018-12-14T05:00:31.417Z,22.57
2018-12-14T05:02:57.551Z,22.48
2018-12-14T05:05:23.736Z,24.87
2018-12-14T05:07:49.927Z,24.50
2018-12-14T05:10:16.069Z,22.45
2018-12-14T05:12:42.175Z,22.43
2018-12-14T05:15:08.438Z,23.40
2018-12-14T05:17:34.718Z,23.20
2018-12-14T05:20:01.136Z,22.67
2018-12-14T05:22:27.880Z,22.58
2018-12-14T05:24:54.128Z,23.70
2018-12-14T05:27:20.592Z,21.07
2018-12-14T05:29:47.250Z,24.75
2018-12-14T05:32:13.515Z,24.17
2018-12-14T05:34:39.772Z,23.33
2018-12-14T05:37:06.033Z,25.03
2018-12-14T05:39:32.289Z,24.93
2018-12-14T05:41:58.500Z,23.50
2018-12-14T05:44:25.007Z,22.10
2018-12-14T05:46:51.181Z,23.30
2018-12-14T05:49:17.272Z,24.97
2018-12-14T05:51:43.546Z,23.77
2018-12-14T05:54:10.746Z,26.77
2018-12-14T05:56:37.213Z,23.93
2018-12-14T05:59:03.356Z,23.62
2018-12-14T06:01:30.047Z,25.13
2018-12-14T06:03:56.771Z,25.80
2018-12-14T06:06:23.051Z,24.97
2018-12-14T06:08:49.237Z,25.10
2018-12-14T06:11:15.433Z,25.03
2018-12-14T06:13:41.926Z,23.17
2018-12-14T06:16:08.248Z,25.70
2018-12-14T06:18:35.547Z,24.23
2018-12-14T06:21:01.759Z,23.33
2018-12-14T06:23:28.928Z,24.23
2018-12-14T06:25:55.046Z,25.53
2018-12-14T06:28:21.286Z,25.70
2018-12-14T06:30:47.573Z,24.95
2018-12-14T06:33:13.858Z,24.90
2018-12-14T06:35:40.076Z,25.70
2018-12-14T06:38:07.530Z,23.33
2018-12-14T06:40:35.064Z,26.47
2018-12-14T06:43:01.278Z,24.37
2018-12-14T06:45:27.389Z,25.43
2018-12-14T06:47:53.505Z,24.83
2018-12-14T06:50:19.921Z,24.32
2018-12-14T06:52:47.169Z,26.43
2018-12-14T06:55:13.429Z,24.90
2018-12-14T06:57:40.364Z,25.17
2018-12-14T07:00:07.777Z,24.83
2018-12-14T07:02:34.025Z,23.85
2018-12-14T07:05:01.150Z,24.97
2018-12-14T07:07:27.351Z,23.10
2018-12-14T07:10:00.490Z,24.43
2018-12-14T07:12:27.807Z,24.37
2018-12-14T07:14:53.937Z,24.73
2018-12-14T07:17:20.102Z,25.23
2018-12-14T07:19:46.450Z,22.47
2018-12-14T07:22:14.969Z,25.10
2018-12-14T07:24:41.096Z,22.33
2018-12-14T07:27:20.967Z,26.70
2018-12-14T07:29:56.519Z,26.00
2018-12-14T07:32:22.690Z,22.83
2018-12-14T07:34:49.108Z,24.60
2018-12-14T07:37:15.934Z,22.30
2018-12-14T07:39:42.088Z,24.27
2018-12-14T07:42:08.348Z,23.23
2018-12-14T07:44:34.741Z,21.77
2018-12-14T07:47:01.189Z,23.90
2018-12-14T07:49:27.330Z,22.43
2018-12-14T07:51:54.252Z,22.67
2018-12-14T07:54:20.490Z,24.90
2018-12-14T07:56:46.689Z,23.20
2018-12-14T07:59:13.573Z,23.35
2018-12-14T08:01:39.716Z,23.30
2018-12-14T08:04:05.873Z,21.90
2018-12-14T08:06:31.968Z,21.07
2018-12-14T08:08:58.167Z,21.10
2018-12-14T08:11:24.501Z,22.00
2018-12-14T08:13:50.724Z,23.32
2018-12-14T08:16:17.164Z,21.33
2018-12-14T08:18:43.258Z,22.80
2018-12-14T08:21:09.388Z,20.77
2018-12-14T08:23:35.574Z,21.20
2018-12-14T08:26:01.701Z,21.23
2018-12-14T08:28:27.985Z,21.85
2018-12-14T08:30:54.249Z,22.83
2018-12-14T08:33:20.381Z,20.50
2018-12-14T08:35:46.635Z,21.65
2018-12-14T08:38:13.518Z,23.43
2018-12-14T08:40:39.709Z,24.63
2018-12-14T08:43:05.915Z,24.53
2018-12-14T08:45:32.124Z,24.43
2018-12-14T08:47:58.641Z,24.33
2018-12-14T08:50:25.005Z,25.47
2018-12-14T08:52:51.231Z,24.30
2018-12-14T08:55:17.594Z,23.57
2018-12-14T08:57:43.970Z,22.07
2018-12-14T09:00:10.425Z,23.20
2018-12-14T09:02:36.553Z,22.73
2018-12-14T09:05:04.557Z,23.43
2018-12-14T09:07:30.788Z,23.73
2018-12-14T09:09:57.007Z,22.87
2018-12-14T09:12:23.104Z,25.12
2018-12-14T09:14:49.325Z,22.07
2018-12-14T09:17:16.372Z,21.70
2018-12-14T09:19:44.551Z,21.55
2018-12-14T09:22:11.703Z,20.03
2018-12-14T09:24:37.997Z,22.00
2018-12-14T09:27:11.299Z,22.35
2018-12-14T09:29:37.750Z,19.73
2018-12-14T09:32:04.297Z,20.17
2018-12-14T09:34:30.484Z,21.73
2018-12-14T09:36:56.718Z,19.90
2018-12-14T09:39:22.848Z,20.30
2018-12-14T09:41:49.083Z,20.90
2018-12-14T09:44:15.385Z,19.83
2018-12-14T09:46:41.562Z,20.90
2018-12-14T09:49:07.792Z,20.60
2018-12-14T09:51:34.144Z,20.33
2018-12-14T09:54:00.288Z,21.52
2018-12-14T09:56:26.720Z,21.90
2018-12-14T09:58:52.862Z,21.13
2018-12-14T10:01:19.048Z,19.07
2018-12-14T10:03:45.675Z,19.52
2018-12-14T10:06:15.638Z,21.30
2018-12-14T10:08:40.046Z,18.57
2018-12-14T10:11:12.265Z,18.43
2018-12-14T10:13:38.933Z,19.63
2018-12-14T10:16:05.300Z,20.92
2018-12-14T10:18:31.999Z,17.90
2018-12-14T10:20:58.228Z,18.50
2018-12-14T10:23:24.549Z,20.90
2018-12-14T10:25:50.936Z,21.30
2018-12-14T10:28:17.174Z,19.93
2018-12-14T10:30:43.479Z,19.50
2018-12-14T10:33:09.602Z,19.57
2018-12-14T10:35:35.853Z,18.00
2018-12-14T10:38:02.333Z,19.23
2018-12-14T10:40:28.745Z,18.87
2018-12-14T10:42:55.965Z,19.97
2018-12-14T10:45:24.072Z,16.83
2018-12-14T10:47:51.166Z,17.52
2018-12-14T10:50:17.333Z,17.30
2018-12-14T10:52:43.760Z,18.50
2018-12-14T10:55:09.932Z,19.63
2018-12-14T10:57:36.554Z,17.80
2018-12-14T11:02:54.942Z,19.30
2018-12-14T11:05:21.171Z,18.20
2018-12-14T11:07:47.274Z,19.60
2018-12-14T11:10:13.867Z,18.67
2018-12-14T11:12:40.170Z,17.70
2018-12-14T11:15:06.692Z,20.07
2018-12-14T11:17:32.974Z,19.33
2018-12-14T11:19:59.100Z,19.97
2018-12-14T11:22:25.331Z,19.30
2018-12-14T11:24:51.506Z,18.70
2018-12-14T11:27:17.630Z,21.40
2018-12-14T11:29:43.808Z,19.07
2018-12-14T11:32:09.903Z,17.80
2018-12-14T11:34:36.113Z,18.00
2018-12-14T11:37:02.393Z,19.30
2018-12-14T11:39:28.517Z,19.60
2018-12-14T11:41:54.690Z,16.70
2018-12-14T11:44:28.466Z,18.02
2018-12-14T11:47:02.585Z,19.63
2018-12-14T11:49:28.822Z,19.20
2018-12-14T11:51:54.941Z,18.60
2018-12-14T11:54:21.158Z,18.62
2018-12-14T11:56:47.441Z,15.73
2018-12-14T11:59:13.650Z,17.50
2018-12-14T12:01:40.040Z,16.33
2018-12-14T12:04:13.107Z,14.93
2018-12-14T12:06:39.395Z,15.00
2018-12-14T12:09:07.731Z,14.80
2018-12-14T12:11:33.832Z,17.00
2018-12-14T12:14:00.847Z,15.27
2018-12-14T12:16:27.182Z,15.63
2018-12-14T12:18:53.414Z,18.30
2018-12-14T12:21:19.566Z,17.53
2018-12-14T12:23:45.791Z,17.67
2018-12-14T12:26:12.043Z,18.07
2018-12-14T12:28:38.143Z,16.60
2018-12-14T12:31:05.170Z,18.27
2018-12-14T12:33:31.437Z,17.93
2018-12-14T12:35:57.657Z,20.12
2018-12-14T12:38:23.993Z,16.90
2018-12-14T12:40:51.324Z,18.52
2018-12-14T12:43:17.439Z,18.90
2018-12-14T12:45:43.570Z,18.37
2018-12-14T12:48:09.787Z,18.90
2018-12-14T12:50:36.923Z,19.57
2018-12-14T12:53:03.274Z,17.83
2018-12-14T12:55:29.557Z,17.00
2018-12-14T12:57:55.782Z,17.60
2018-12-14T13:00:24.635Z,21.80
2018-12-14T13:02:50.984Z,17.73
2018-12-14T13:05:17.248Z,17.13
2018-12-14T13:07:43.494Z,19.15
2018-12-14T13:10:10.685Z,20.00
2018-12-14T13:12:44.565Z,17.27
2018-12-14T13:15:11.642Z,16.07
2018-12-14T13:17:37.769Z,16.03
2018-12-14T13:20:04.126Z,17.92
2018-12-14T13:22:30.595Z,16.57
2018-12-14T13:24:57.707Z,17.45
2018-12-14T13:27:23.920Z,16.37
2018-12-14T13:29:50.858Z,16.57
2018-12-14T13:34:56.445Z,17.33
2018-12-14T13:37:22.753Z,16.73
2018-12-14T13:39:49.058Z,17.90
2018-12-14T13:42:15.215Z,16.87
2018-12-14T13:44:46.734Z,19.50
2018-12-14T13:47:13.024Z,17.50
2018-12-14T13:49:40.528Z,17.23
2018-12-14T13:52:06.871Z,18.27
2018-12-14T13:54:33.023Z,18.05
2018-12-14T13:57:00.186Z,18.50
2018-12-14T13:59:26.400Z,18.80
2018-12-14T14:01:52.516Z,18.10
2018-12-14T14:04:18.777Z,17.40
2018-12-14T14:06:45.819Z,16.73
2018-12-14T14:09:12.264Z,18.92
2018-12-14T14:11:39.948Z,16.77
2018-12-14T14:14:06.762Z,16.70
2018-12-14T14:16:32.886Z,18.32
2018-12-14T14:18:59.209Z,16.87
2018-12-14T14:21:25.425Z,19.60
2018-12-14T14:23:51.737Z,17.60
2018-12-14T14:26:18.886Z,18.30
2018-12-14T14:28:45.805Z,19.67
2018-12-14T14:31:12.159Z,19.33
2018-12-14T14:33:45.336Z,16.97
2018-12-14T14:36:12.577Z,16.47
2018-12-14T14:38:39.651Z,18.60
2018-12-14T14:41:05.857Z,18.62
2018-12-14T14:43:31.961Z,18.80
2018-12-14T14:45:59.110Z,20.00
2018-12-14T14:48:26.840Z,17.67
2018-12-14T14:50:52.945Z,16.90
2018-12-14T14:53:25.933Z,17.57
2018-12-14T14:55:52.100Z,17.70
2018-12-14T14:58:18.301Z,19.10
2018-12-14T15:00:44.491Z,17.85
2018-12-14T15:03:11.646Z,17.33
2018-12-14T15:05:37.797Z,17.40
2018-12-14T15:08:04.125Z,15.70
2018-12-14T15:10:30.319Z,16.23
2018-12-14T15:12:56.457Z,17.67
2018-12-14T15:15:23.481Z,17.92
2018-12-14T15:17:49.687Z,19.80
2018-12-14T15:20:17.182Z,20.63
2018-12-14T15:22:43.384Z,20.60
2018-12-14T15:25:09.751Z,19.47
2018-12-14T15:27:37.982Z,22.27
2018-12-14T15:30:04.350Z,22.13
2018-12-14T15:32:31.788Z,22.48
2018-12-14T15:34:59.290Z,23.00
2018-12-14T15:37:25.721Z,22.60
2018-12-14T15:39:51.859Z,24.47
2018-12-14T15:42:18.697Z,23.67
2018-12-14T15:44:45.075Z,24.60
2018-12-14T15:47:11.438Z,24.43
2018-12-14T15:49:37.791Z,23.37
2018-12-14T15:52:04.106Z,25.50
2018-12-14T15:54:31.470Z,24.20
2018-12-14T15:56:57.608Z,27.73
2018-12-14T15:59:23.961Z,27.00
2018-12-14T16:01:50.391Z,26.47
2018-12-14T16:04:16.831Z,25.10
2018-12-14T16:06:43.313Z,25.82
2018-12-14T16:09:09.615Z,25.30
2018-12-14T16:11:36.519Z,22.97
2018-12-14T16:14:03.822Z,25.90
2018-12-14T16:16:29.983Z,29.65
2018-12-14T16:18:57.359Z,26.43
2018-12-14T16:21:23.618Z,26.90
2018-12-14T16:23:49.904Z,27.60
2018-12-14T16:26:16.156Z,25.50
2018-12-14T16:28:42.551Z,25.93
2018-12-14T16:31:09.957Z,25.23
2018-12-14T16:33:36.123Z,28.20
2018-12-14T16:36:09.417Z,27.90
2018-12-14T16:38:35.640Z,28.07
2018-12-14T16:41:01.867Z,28.07
2018-12-14T16:43:28.050Z,27.43
2018-12-14T16:45:54.377Z,25.27
2018-12-14T16:48:21.458Z,29.50
2018-12-14T16:50:48.325Z,28.60
2018-12-14T16:53:14.788Z,29.27
2018-12-14T16:55:41.549Z,27.13
2018-12-14T16:58:07.854Z,26.07
2018-12-14T17:00:34.813Z,27.40
2018-12-14T17:03:00.939Z,29.10
2018-12-14T17:05:27.802Z,26.53
2018-12-14T17:07:54.589Z,27.20
2018-12-14T17:10:21.000Z,26.17
2018-12-14T17:12:47.167Z,29.87
2018-12-14T17:15:14.149Z,26.13
2018-12-14T17:17:40.342Z,26.70
2018-12-14T17:20:06.620Z,26.00
2018-12-14T17:22:32.880Z,27.40
2018-12-14T17:24:59.034Z,25.93
2018-12-14T17:27:26.003Z,27.10
2018-12-14T17:29:52.133Z,25.50
2018-12-14T17:32:19.305Z,25.30
2018-12-14T17:34:45.514Z,25.05
2018-12-14T17:37:11.829Z,27.87
2018-12-14T17:39:38.106Z,29.83
2018-12-14T17:42:05.118Z,27.90
2018-12-14T17:44:32.250Z,27.77
2018-12-14T17:46:59.530Z,26.97
2018-12-14T17:49:25.862Z,26.17
2018-12-14T17:51:52.419Z,28.20
2018-12-14T17:54:18.774Z,25.73
2018-12-14T17:56:45.568Z,28.80
2018-12-14T17:59:11.740Z,29.67
2018-12-14T18:01:39.061Z,29.23
2018-12-14T18:04:05.265Z,29.10
2018-12-14T18:06:31.392Z,31.60
2018-12-14T18:09:06.309Z,29.57
2018-12-14T18:11:32.805Z,29.23
2018-12-14T18:13:59.116Z,27.50
2018-12-14T18:16:25.750Z,27.57
2018-12-14T18:18:58.941Z,27.83
2018-12-14T18:21:25.296Z,28.10
2018-12-14T18:23:51.465Z,29.60
2018-12-14T18:26:17.749Z,26.80
2018-12-14T18:28:43.861Z,27.20
2018-12-14T18:31:10.085Z,26.50
2018-12-14T18:33:36.258Z,27.40
2018-12-14T18:36:02.704Z,25.73
2018-12-14T18:38:28.949Z,24.90
2018-12-14T18:40:55.151Z,25.73
2018-12-14T18:45:58.799Z,24.27
2018-12-14T18:48:25.136Z,25.57
2018-12-14T18:50:51.972Z,27.93
2018-12-14T18:53:18.190Z,26.50
2018-12-14T18:55:44.917Z,26.17
2018-12-14T18:58:18.130Z,26.10
2018-12-14T19:00:44.589Z,25.67
2018-12-14T19:03:10.942Z,25.68
2018-12-14T19:05:37.150Z,26.13
2018-12-14T19:08:04.445Z,31.23
2018-12-14T19:10:30.677Z,29.53
2018-12-14T19:12:57.130Z,28.03
2018-12-14T19:15:23.530Z,23.02
2018-12-14T19:17:49.843Z,24.40
2018-12-14T19:20:16.212Z,25.90
2018-12-14T19:22:42.359Z,24.60
2018-12-14T19:25:10.302Z,23.27
2018-12-14T19:27:37.354Z,22.27
2018-12-14T19:30:03.963Z,24.83
2018-12-14T19:32:31.171Z,23.93
2018-12-14T19:34:58.442Z,22.17
2018-12-14T19:37:24.719Z,22.23
2018-12-14T19:39:51.671Z,23.70
2018-12-14T19:42:17.945Z,19.50
2018-12-14T19:44:45.112Z,20.20
2018-12-14T19:47:13.048Z,21.13
2018-12-14T19:49:39.768Z,20.13
2018-12-14T19:52:06.474Z,22.50
2018-12-14T19:54:32.929Z,23.27
2018-12-14T19:57:00.198Z,20.17
2018-12-14T19:59:26.586Z,22.43
2018-12-14T20:01:53.084Z,21.23
2018-12-14T20:04:19.413Z,22.87
2018-12-14T20:06:45.657Z,20.50
2018-12-14T20:09:11.790Z,20.57
2018-12-14T20:11:38.058Z,20.77
2018-12-14T20:14:04.653Z,23.77
2018-12-14T20:16:31.067Z,22.13
2018-12-14T20:18:57.317Z,23.30
2018-12-14T20:21:23.529Z,21.50
2018-12-14T20:23:49.681Z,23.20
2018-12-14T20:26:15.927Z,34.60
2018-12-14T20:28:42.200Z,21.57
2018-12-14T20:31:08.419Z,21.63
2018-12-14T20:33:34.561Z,22.57
2018-12-14T20:36:00.794Z,21.67
2018-12-14T20:38:27.119Z,23.47
2018-12-14T20:40:53.262Z,22.00
2018-12-14T20:43:19.535Z,21.90
2018-12-14T20:45:45.705Z,22.93
2018-12-14T20:48:12.042Z,20.50
2018-12-14T20:50:38.162Z,24.93
2018-12-14T20:53:04.605Z,22.07
2018-12-14T20:55:30.843Z,22.30
2018-12-14T20:57:57.097Z,19.67
2018-12-14T21:00:23.355Z,24.60
2018-12-14T21:02:49.687Z,21.07
2018-12-14T21:05:16.053Z,22.60
2018-12-14T21:07:42.267Z,21.50
2018-12-14T21:10:08.626Z,23.60
2018-12-14T21:12:35.207Z,22.47
2018-12-14T21:15:01.691Z,20.52
2018-12-14T21:17:28.072Z,21.50
2018-12-14T21:19:54.202Z,21.37
2018-12-14T21:22:20.495Z,21.73
2018-12-14T21:24:46.629Z,21.50
2018-12-14T21:27:12.788Z,22.50
2018-12-14T21:29:39.166Z,22.23
2018-12-14T21:32:05.273Z,20.57
2018-12-14T21:34:31.587Z,21.40
2018-12-14T21:36:57.706Z,19.90
2018-12-14T21:39:23.962Z,19.75
2018-12-14T21:41:50.287Z,20.23
2018-12-14T21:44:16.432Z,20.92
2018-12-14T21:46:42.515Z,21.00
2018-12-14T21:49:08.695Z,18.70
2018-12-14T21:51:34.841Z,17.00
2018-12-14T21:54:01.178Z,16.73
2018-12-14T21:56:27.371Z,19.30
2018-12-14T21:58:53.820Z,18.43
2018-12-14T22:01:20.164Z,17.70
2018-12-14T22:03:46.442Z,17.50
2018-12-14T22:06:12.544Z,16.27
2018-12-14T22:08:38.815Z,20.10
2018-12-14T22:11:05.051Z,18.70
2018-12-14T22:13:31.646Z,14.87
2018-12-14T22:15:57.840Z,15.00
2018-12-14T22:18:24.143Z,14.80
2018-12-14T22:20:50.358Z,12.63
2018-12-14T22:23:18.117Z,13.07
2018-12-14T22:25:44.337Z,14.03
2018-12-14T22:28:10.547Z,13.57
2018-12-14T22:30:36.755Z,14.77
2018-12-14T22:33:03.596Z,13.98
2018-12-14T22:35:29.943Z,15.07
2018-12-14T22:37:56.234Z,13.08
2018-12-14T22:40:22.552Z,12.17
2018-12-14T22:42:48.772Z,13.10
2018-12-14T22:45:15.012Z,13.20
2018-12-14T22:47:41.326Z,14.53
2018-12-14T22:50:07.662Z,15.57
2018-12-14T22:52:33.985Z,15.13
2018-12-14T22:55:00.212Z,12.20
2018-12-14T22:57:26.319Z,13.40
2018-12-14T22:59:52.620Z,13.23
2018-12-14T23:02:18.853Z,13.40
2018-12-14T23:04:45.105Z,13.50
2018-12-14T23:07:11.329Z,12.30
2018-12-14T23:09:37.469Z,13.30
2018-12-14T23:12:03.716Z,13.77
2018-12-14T23:14:30.090Z,16.10
2018-12-14T23:16:56.364Z,15.40
2018-12-14T23:19:22.732Z,16.97
2018-12-14T23:21:49.127Z,15.05
2018-12-14T23:24:15.473Z,15.87
2018-12-14T23:26:41.700Z,16.80
2018-12-14T23:29:07.835Z,17.43
2018-12-14T23:31:34.349Z,17.87
2018-12-14T23:34:00.516Z,18.10
2018-12-14T23:36:27.420Z,18.07
2018-12-14T23:38:53.721Z,15.97
2018-12-14T23:41:20.016Z,17.83
2018-12-14T23:43:46.260Z,19.60
2018-12-14T23:46:12.493Z,18.83
2018-12-14T23:48:38.606Z,17.67
2018-12-14T23:51:04.872Z,17.53
2018-12-14T23:53:31.483Z,17.17
2018-12-14T23:55:57.863Z,36.20
2018-12-14T23:58:24.353Z,17.65
